createdAt,value
2018-06-14T00:02:04.488Z,3.50
2018-06-14T00:04:32.545Z,3.85
2018-06-14T00:07:00.593Z,2.60
2018-06-14T00:09:28.664Z,3.25
2018-06-14T00:11:56.717Z,13.38
2018-06-14T00:14:24.781Z,3.37
2018-06-14T00:16:52.825Z,2.92
2018-06-14T00:19:20.882Z,4.33
2018-06-14T00:21:48.932Z,4.75
2018-06-14T00:24:17.004Z,2.50
2018-06-14T00:26:45.076Z,8.38
2018-06-14T00:29:13.157Z,3.10
2018-06-14T00:31:41.212Z,5.58
2018-06-14T00:34:09.276Z,2.37
2018-06-14T00:36:37.321Z,7.58
2018-06-14T00:39:06.490Z,4.00
2018-06-14T00:41:34.612Z,2.90
2018-06-14T00:44:02.692Z,5.35
2018-06-14T00:46:30.778Z,4.00
2018-06-14T00:48:58.840Z,4.85
2018-06-14T00:51:26.913Z,1.82
2018-06-14T00:53:54.981Z,3.70
2018-06-14T00:56:23.051Z,3.50
2018-06-14T00:58:51.096Z,8.78
2018-06-14T01:01:19.195Z,4.58
2018-06-14T01:03:47.244Z,2.37
2018-06-14T01:06:15.667Z,3.40
2018-06-14T01:08:43.723Z,10.23
2018-06-14T01:11:11.775Z,3.33
2018-06-14T01:13:39.836Z,3.87
2018-06-14T01:16:09.027Z,2.95
2018-06-14T01:18:37.096Z,5.85
2018-06-14T01:21:05.152Z,4.20
2018-06-14T01:23:33.199Z,9.53
2018-06-14T01:26:01.273Z,3.30
2018-06-14T01:28:29.328Z,3.87
2018-06-14T01:30:57.416Z,3.62
2018-06-14T01:33:25.530Z,3.87
2018-06-14T01:35:53.636Z,5.42
2018-06-14T01:38:24.662Z,5.15
2018-06-14T01:40:52.956Z,3.35
2018-06-14T01:43:21.642Z,4.85
2018-06-14T01:45:49.736Z,6.67
2018-06-14T01:48:18.452Z,4.80
2018-06-14T01:50:46.941Z,6.40
2018-06-14T01:53:15.090Z,4.45
2018-06-14T01:55:43.140Z,3.90
2018-06-14T01:58:11.199Z,6.15
2018-06-14T02:00:39.260Z,7.53
2018-06-14T02:03:07.308Z,3.72
2018-06-14T02:05:35.375Z,4.53
2018-06-14T02:08:03.416Z,3.02
2018-06-14T02:10:31.499Z,3.15
2018-06-14T02:12:59.544Z,2.95
2018-06-14T02:15:28.695Z,2.55
2018-06-14T02:17:57.264Z,14.47
2018-06-14T02:20:25.316Z,5.83
2018-06-14T02:22:53.443Z,5.45
2018-06-14T02:25:21.496Z,6.62
2018-06-14T02:27:49.750Z,3.52
2018-06-14T02:30:17.779Z,3.30
2018-06-14T02:32:45.907Z,2.92
2018-06-14T02:35:14.056Z,3.08
2018-06-14T02:37:42.764Z,3.17
2018-06-14T02:40:12.554Z,4.85
2018-06-14T02:42:41.148Z,3.67
2018-06-14T02:45:09.213Z,3.62
2018-06-14T02:47:37.271Z,8.95
2018-06-14T02:50:05.693Z,5.40
2018-06-14T02:52:33.940Z,3.98
2018-06-14T02:55:01.982Z,7.17
2018-06-14T02:57:30.107Z,2.27
2018-06-14T02:59:58.350Z,4.05
2018-06-14T03:02:26.416Z,1.77
2018-06-14T03:04:54.467Z,12.13
2018-06-14T03:07:27.976Z,2.12
2018-06-14T03:09:56.060Z,2.62
2018-06-14T03:12:24.105Z,3.00
2018-06-14T03:14:52.178Z,9.48
2018-06-14T03:17:21.295Z,2.37
2018-06-14T03:19:50.648Z,3.02
2018-06-14T03:22:18.980Z,2.33
2018-06-14T03:24:47.041Z,5.12
2018-06-14T03:27:15.140Z,3.50
2018-06-14T03:29:43.176Z,4.28
2018-06-14T03:32:11.209Z,4.67
2018-06-14T03:34:39.247Z,5.33
2018-06-14T03:37:07.312Z,14.30
2018-06-14T03:39:35.344Z,6.95
2018-06-14T03:42:08.633Z,4.87
2018-06-14T03:44:37.949Z,3.52
2018-06-14T03:47:07.448Z,2.80
2018-06-14T03:49:36.143Z,3.00
2018-06-14T03:52:04.191Z,4.12
2018-06-14T03:54:32.468Z,3.47
2018-06-14T03:57:00.581Z,5.25
2018-06-14T03:59:28.652Z,4.53
2018-06-14T04:01:56.903Z,2.77
2018-06-14T04:04:25.021Z,2.90
2018-06-14T04:06:53.080Z,8.78
2018-06-14T04:09:21.120Z,4.42
2018-06-14T04:11:49.176Z,3.50
2018-06-14T04:14:17.216Z,3.20
2018-06-14T04:16:45.288Z,2.87
2018-06-14T04:19:13.357Z,2.77
2018-06-14T04:21:41.421Z,2.20
2018-06-14T04:24:09.476Z,3.95
2018-06-14T04:26:37.532Z,3.10
2018-06-14T04:29:05.688Z,3.33
2018-06-14T04:31:33.730Z,3.25
2018-06-14T04:34:01.775Z,3.35
2018-06-14T04:36:29.809Z,6.67
2018-06-14T04:38:57.892Z,7.50
2018-06-14T04:41:25.940Z,4.62
2018-06-14T04:43:53.996Z,3.30
2018-06-14T04:46:22.028Z,3.65
2018-06-14T04:48:50.061Z,3.70
2018-06-14T04:51:18.101Z,3.95
2018-06-14T04:53:46.147Z,3.50
2018-06-14T04:56:14.339Z,4.58
2018-06-14T04:58:42.438Z,5.45
2018-06-14T05:01:10.501Z,6.60
2018-06-14T05:03:38.556Z,4.45
2018-06-14T05:06:06.592Z,4.25
2018-06-14T05:08:34.643Z,3.45
2018-06-14T05:11:02.728Z,3.37
2018-06-14T05:13:30.792Z,3.40
2018-06-14T05:16:01.268Z,10.53
2018-06-14T05:18:29.318Z,3.15
2018-06-14T05:20:57.349Z,5.17
2018-06-14T05:23:25.397Z,2.72
2018-06-14T05:25:53.499Z,3.67
2018-06-14T05:28:21.504Z,3.55
2018-06-14T05:30:49.540Z,5.62
2018-06-14T05:33:17.604Z,4.55
2018-06-14T05:35:45.677Z,4.37
2018-06-14T05:38:13.765Z,4.58
2018-06-14T05:40:41.819Z,3.27
2018-06-14T05:43:09.867Z,4.33
2018-06-14T05:45:37.904Z,5.92
2018-06-14T05:48:05.964Z,5.22
2018-06-14T05:50:34.014Z,4.50
2018-06-14T05:53:02.053Z,6.33
2018-06-14T05:55:30.175Z,4.17
2018-06-14T05:57:58.227Z,6.12
2018-06-14T06:00:26.273Z,4.25
2018-06-14T06:02:54.335Z,5.03
2018-06-14T06:05:22.372Z,4.72
2018-06-14T06:07:50.628Z,4.65
2018-06-14T06:10:18.669Z,6.90
2018-06-14T06:12:46.740Z,5.17
2018-06-14T06:15:14.796Z,3.58
2018-06-14T06:17:42.873Z,6.78
2018-06-14T06:20:17.773Z,5.83
2018-06-14T06:22:46.401Z,5.78
2018-06-14T06:25:14.503Z,4.90
2018-06-14T06:27:42.548Z,6.75
2018-06-14T06:30:10.589Z,6.17
2018-06-14T06:32:38.727Z,6.15
2018-06-14T06:35:06.775Z,7.35
2018-06-14T06:37:34.812Z,5.28
2018-06-14T06:40:02.884Z,5.10
2018-06-14T06:42:30.927Z,10.03
2018-06-14T06:44:59.055Z,6.33
2018-06-14T06:47:27.025Z,5.08
2018-06-14T06:49:55.076Z,9.30
2018-06-14T06:52:23.122Z,4.67
2018-06-14T06:54:51.193Z,6.12
2018-06-14T06:57:19.479Z,6.75
2018-06-14T06:59:47.624Z,6.90
2018-06-14T07:02:15.709Z,6.97
2018-06-14T07:04:43.768Z,5.80
2018-06-14T07:07:11.817Z,6.53
2018-06-14T07:09:39.880Z,6.40
2018-06-14T07:12:07.954Z,10.13
2018-06-14T07:14:36.009Z,6.95
2018-06-14T07:17:04.050Z,6.20
2018-06-14T07:19:32.098Z,4.78
2018-06-14T07:22:00.172Z,8.73
2018-06-14T07:24:28.255Z,8.75
2018-06-14T07:26:56.296Z,7.55
2018-06-14T07:29:24.352Z,7.97
2018-06-14T07:31:52.387Z,10.20
2018-06-14T07:34:20.436Z,9.05
2018-06-14T07:36:48.473Z,9.18
2018-06-14T07:39:16.516Z,7.40
2018-06-14T07:41:44.568Z,11.90
2018-06-14T07:44:12.684Z,8.28
2018-06-14T07:46:40.729Z,7.42
2018-06-14T07:49:08.792Z,8.68
2018-06-14T07:51:36.825Z,9.63
2018-06-14T07:54:04.926Z,11.35
2018-06-14T07:56:32.926Z,9.90
2018-06-14T07:59:00.975Z,11.28
2018-06-14T08:01:29.032Z,9.58
2018-06-14T08:03:57.067Z,9.25
2018-06-14T08:06:25.116Z,6.30
2018-06-14T08:08:53.141Z,8.48
2018-06-14T08:11:21.192Z,9.95
2018-06-14T08:13:49.236Z,9.48
2018-06-14T08:16:17.289Z,8.50
2018-06-14T08:18:45.320Z,6.75
2018-06-14T08:21:13.369Z,10.18
2018-06-14T08:23:41.408Z,11.10
2018-06-14T08:26:09.476Z,11.15
2018-06-14T08:28:37.548Z,13.00
2018-06-14T08:31:05.614Z,13.10
2018-06-14T08:33:33.696Z,12.70
2018-06-14T08:36:01.761Z,12.90
2018-06-14T08:38:30.011Z,16.80
2018-06-14T08:40:58.073Z,18.17
2018-06-14T08:43:26.115Z,16.05
2018-06-14T08:45:54.220Z,14.98
2018-06-14T08:48:22.272Z,15.45
2018-06-14T08:50:50.344Z,13.90
2018-06-14T08:53:18.414Z,11.93
2018-06-14T08:55:46.514Z,14.65
2018-06-14T08:58:14.549Z,10.00
2018-06-14T09:00:42.630Z,15.80
2018-06-14T09:03:12.197Z,17.23
2018-06-14T09:05:40.296Z,19.48
2018-06-14T09:08:08.353Z,18.25
2018-06-14T09:10:36.411Z,13.80
2018-06-14T09:13:04.464Z,15.78
2018-06-14T09:15:32.528Z,18.37
2018-06-14T09:18:00.593Z,20.37
2018-06-14T09:20:28.660Z,26.45
2018-06-14T09:22:56.732Z,24.75
2018-06-14T09:25:24.813Z,25.95
2018-06-14T09:27:52.892Z,27.52
2018-06-14T09:30:21.025Z,26.10
2018-06-14T09:32:49.105Z,20.48
2018-06-14T09:35:17.180Z,17.42
2018-06-14T09:37:45.252Z,25.65
2018-06-14T09:40:13.320Z,19.67
2018-06-14T09:42:41.480Z,24.60
2018-06-14T09:45:09.557Z,20.75
2018-06-14T09:47:37.625Z,29.05
2018-06-14T09:50:05.702Z,21.80
2018-06-14T09:52:33.761Z,17.20
2018-06-14T09:55:01.808Z,18.95
2018-06-14T09:57:29.893Z,22.13
2018-06-14T09:59:57.956Z,22.98
2018-06-14T10:02:26.035Z,16.32
2018-06-14T10:04:54.088Z,22.48
2018-06-14T10:07:22.152Z,38.05
2018-06-14T10:09:50.196Z,34.18
2018-06-14T10:12:18.284Z,23.73
2018-06-14T10:14:46.393Z,32.75
2018-06-14T10:17:14.453Z,39.50
2018-06-14T10:19:42.512Z,27.82
2018-06-14T10:22:10.592Z,30.75
2018-06-14T10:24:38.669Z,40.03
2018-06-14T10:27:06.740Z,24.47
2018-06-14T10:29:34.816Z,34.98
2018-06-14T10:32:02.876Z,26.97
2018-06-14T10:34:30.937Z,36.88
2018-06-14T10:36:59.010Z,29.77
2018-06-14T10:39:27.080Z,40.65
2018-06-14T10:41:55.158Z,37.73
2018-06-14T10:44:23.208Z,37.65
2018-06-14T10:46:51.270Z,34.85
2018-06-14T10:49:19.347Z,29.27
2018-06-14T10:51:47.453Z,37.90
2018-06-14T10:54:15.508Z,31.75
2018-06-14T10:56:43.564Z,28.85
2018-06-14T10:59:11.654Z,46.48
2018-06-14T11:01:39.720Z,48.20
2018-06-14T11:04:07.809Z,47.55
2018-06-14T11:06:35.859Z,37.28
2018-06-14T11:09:05.796Z,30.82
2018-06-14T11:11:33.848Z,31.23
2018-06-14T11:14:01.923Z,31.85
2018-06-14T11:16:29.961Z,39.10
2018-06-14T11:18:58.009Z,29.32
2018-06-14T11:21:26.069Z,43.83
2018-06-14T11:23:54.130Z,40.45
2018-06-14T11:26:22.183Z,39.67
2018-06-14T11:28:50.457Z,37.95
2018-06-14T11:31:18.500Z,36.58
2018-06-14T11:33:46.543Z,29.40
2018-06-14T11:36:14.594Z,26.60
2018-06-14T11:38:42.640Z,24.12
2018-06-14T11:41:10.684Z,25.08
2018-06-14T11:43:38.729Z,47.48
2018-06-14T11:46:06.777Z,31.20
2018-06-14T11:48:34.830Z,37.00
2018-06-14T11:51:02.858Z,39.85
2018-06-14T11:53:30.968Z,28.83
2018-06-14T11:55:59.027Z,28.60
2018-06-14T11:58:27.104Z,34.43
2018-06-14T12:00:55.140Z,41.48
2018-06-14T12:03:23.251Z,30.80
2018-06-14T12:05:51.566Z,39.83
2018-06-14T12:08:19.666Z,40.78
2018-06-14T12:10:47.737Z,36.88
2018-06-14T12:13:15.795Z,34.35
2018-06-14T12:15:43.901Z,41.23
2018-06-14T12:18:12.068Z,44.50
2018-06-14T12:20:40.107Z,43.68
2018-06-14T12:23:08.621Z,36.20
2018-06-14T12:25:36.692Z,50.08
2018-06-14T12:28:05.020Z,47.60
2018-06-14T12:30:33.064Z,49.53
2018-06-14T12:33:01.309Z,42.73
2018-06-14T12:35:29.375Z,52.20
2018-06-14T12:37:57.530Z,37.95
2018-06-14T12:40:25.623Z,42.88
2018-06-14T12:42:53.785Z,36.93
2018-06-14T12:45:21.860Z,51.60
2018-06-14T12:47:49.919Z,32.05
2018-06-14T12:50:18.004Z,34.43
2018-06-14T12:52:46.184Z,34.43
2018-06-14T12:55:14.255Z,34.95
2018-06-14T12:57:42.315Z,41.15
2018-06-14T13:00:10.357Z,49.93
2018-06-14T13:02:38.400Z,39.13
2018-06-14T13:05:06.454Z,44.65
2018-06-14T13:07:34.501Z,43.08
2018-06-14T13:10:02.544Z,53.20
2018-06-14T13:12:30.630Z,52.17
2018-06-14T13:14:58.708Z,47.08
2018-06-14T13:17:26.801Z,49.25
2018-06-14T13:19:54.845Z,38.35
2018-06-14T13:22:22.961Z,67.00
2018-06-14T13:24:51.020Z,50.78
2018-06-14T13:27:19.060Z,50.10
2018-06-14T13:29:47.128Z,46.85
2018-06-14T13:32:15.192Z,42.50
2018-06-14T13:34:43.236Z,55.28
2018-06-14T13:37:11.340Z,50.23
2018-06-14T13:39:39.398Z,36.85
2018-06-14T13:42:07.473Z,38.88
2018-06-14T13:44:35.552Z,35.10
2018-06-14T13:47:03.616Z,42.08
2018-06-14T13:49:31.679Z,34.73
2018-06-14T13:51:59.748Z,34.63
2018-06-14T13:54:27.834Z,44.10
2018-06-14T13:56:55.895Z,31.05
2018-06-14T13:59:23.931Z,32.17
2018-06-14T14:01:51.980Z,34.18
2018-06-14T14:04:20.061Z,33.83
2018-06-14T14:06:48.097Z,39.75
2018-06-14T14:09:16.156Z,30.57
2018-06-14T14:11:44.201Z,44.33
2018-06-14T14:14:12.294Z,45.08
2018-06-14T14:16:40.396Z,40.67
2018-06-14T14:19:08.444Z,44.30
2018-06-14T14:21:36.492Z,47.03
2018-06-14T14:24:04.564Z,40.60
2018-06-14T14:26:32.684Z,33.98
2018-06-14T14:29:00.732Z,38.02
2018-06-14T14:31:28.801Z,34.70
2018-06-14T14:33:56.864Z,32.20
2018-06-14T14:36:24.906Z,44.75
2018-06-14T14:38:52.939Z,49.80
2018-06-14T14:41:20.976Z,43.92
2018-06-14T14:43:49.028Z,31.95
2018-06-14T14:46:17.072Z,30.00
2018-06-14T14:48:45.173Z,30.12
2018-06-14T14:51:13.213Z,40.23
2018-06-14T14:53:41.304Z,29.45
2018-06-14T14:56:09.457Z,45.88
2018-06-14T14:58:37.549Z,53.98
2018-06-14T15:01:05.617Z,50.60
2018-06-14T15:03:33.701Z,44.15
2018-06-14T15:06:01.766Z,43.30
2018-06-14T15:08:30.020Z,48.68
2018-06-14T15:10:58.108Z,57.38
2018-06-14T15:13:26.161Z,47.80
2018-06-14T15:15:54.267Z,39.83
2018-06-14T15:18:22.308Z,38.73
2018-06-14T15:20:50.356Z,49.83
2018-06-14T15:23:18.400Z,40.33
2018-06-14T15:25:46.498Z,32.58
2018-06-14T15:28:14.583Z,41.70
2018-06-14T15:30:42.664Z,48.05
2018-06-14T15:33:10.725Z,56.13
2018-06-14T15:35:38.797Z,57.98
2018-06-14T15:38:06.868Z,48.50
2018-06-14T15:40:34.926Z,47.17
2018-06-14T15:43:03.040Z,49.42
2018-06-14T15:45:31.146Z,56.45
2018-06-14T15:47:59.252Z,48.02
2018-06-14T15:50:27.300Z,34.27
2018-06-14T15:52:55.340Z,41.63
2018-06-14T15:55:34.800Z,37.83
2018-06-14T15:58:02.861Z,36.98
2018-06-14T16:00:30.968Z,38.88
2018-06-14T16:02:59.004Z,40.15
2018-06-14T16:05:27.108Z,31.55
2018-06-14T16:07:55.190Z,43.17
2018-06-14T16:10:23.234Z,36.20
2018-06-14T16:12:51.333Z,34.83
2018-06-14T16:15:19.391Z,33.02
2018-06-14T16:17:47.460Z,33.67
2018-06-14T16:20:15.522Z,31.15
2018-06-14T16:22:43.588Z,36.50
2018-06-14T16:25:11.720Z,32.08
2018-06-14T16:27:40.217Z,35.98
2018-06-14T16:30:08.340Z,30.60
2018-06-14T16:32:36.392Z,34.88
2018-06-14T16:35:04.852Z,30.12
2018-06-14T16:37:32.901Z,32.30
2018-06-14T16:40:01.014Z,37.33
2018-06-14T16:42:29.082Z,29.02
2018-06-14T16:44:57.200Z,28.50
2018-06-14T16:47:25.237Z,33.55
2018-06-14T16:49:53.294Z,29.70
2018-06-14T16:52:21.384Z,32.03
2018-06-14T16:54:49.436Z,32.17
2018-06-14T16:57:17.496Z,24.98
2018-06-14T16:59:45.548Z,23.62
2018-06-14T17:02:13.648Z,23.57
2018-06-14T17:04:41.753Z,24.35
2018-06-14T17:07:09.832Z,38.75
2018-06-14T17:09:37.872Z,35.75
2018-06-14T17:12:05.974Z,27.05
2018-06-14T17:14:34.144Z,32.70
2018-06-14T17:17:02.240Z,31.10
2018-06-14T17:19:30.286Z,28.45
2018-06-14T17:21:58.444Z,22.93
2018-06-14T17:24:27.323Z,24.15
2018-06-14T17:26:57.561Z,18.45
2018-06-14T17:29:26.636Z,24.57
2018-06-14T17:31:54.701Z,32.15
2018-06-14T17:34:22.751Z,18.32
2018-06-14T17:36:51.229Z,18.02
2018-06-14T17:39:19.296Z,24.12
2018-06-14T17:41:47.738Z,55.25
2018-06-14T17:44:15.873Z,31.05
2018-06-14T17:46:43.935Z,32.60
2018-06-14T17:49:11.986Z,26.82
2018-06-14T17:51:40.049Z,24.45
2018-06-14T17:54:08.205Z,21.80
2018-06-14T17:56:36.273Z,18.92
2018-06-14T17:59:04.376Z,21.85
2018-06-14T18:01:32.463Z,21.40
2018-06-14T18:04:00.512Z,18.05
2018-06-14T18:06:28.606Z,16.77
2018-06-14T18:08:56.657Z,19.42
2018-06-14T18:11:24.924Z,22.82
2018-06-14T18:13:52.985Z,17.65
2018-06-14T18:16:21.052Z,17.82
2018-06-14T18:18:49.093Z,18.35
2018-06-14T18:21:17.144Z,18.85
2018-06-14T18:23:45.236Z,18.32
2018-06-14T18:26:13.316Z,16.10
2018-06-14T18:28:41.372Z,12.70
2018-06-14T18:31:09.444Z,13.40
2018-06-14T18:33:37.503Z,15.80
2018-06-14T18:36:05.618Z,19.85
2018-06-14T18:38:33.696Z,15.05
2018-06-14T18:41:01.756Z,18.92
2018-06-14T18:43:29.826Z,13.10
2018-06-14T18:45:58.086Z,13.25
2018-06-14T18:48:26.150Z,16.75
2018-06-14T18:50:54.235Z,13.75
2018-06-14T18:53:22.512Z,15.93
2018-06-14T18:55:50.577Z,20.27
2018-06-14T18:58:18.630Z,15.15
2018-06-14T19:00:46.712Z,17.07
2018-06-14T19:03:14.781Z,14.00
2018-06-14T19:05:42.872Z,17.45
2018-06-14T19:08:11.004Z,14.75
2018-06-14T19:10:39.061Z,15.93
2018-06-14T19:13:07.132Z,21.12
2018-06-14T19:15:35.176Z,14.00
2018-06-14T19:18:03.246Z,14.93
2018-06-14T19:20:31.296Z,16.10
2018-06-14T19:22:59.356Z,14.95
2018-06-14T19:25:27.418Z,13.70
2018-06-14T19:27:55.549Z,18.05
2018-06-14T19:30:23.734Z,13.75
2018-06-14T19:32:51.803Z,17.00
2018-06-14T19:35:19.877Z,15.63
2018-06-14T19:37:48.005Z,15.85
2018-06-14T19:40:16.081Z,17.90
2018-06-14T19:42:44.140Z,17.40
2018-06-14T19:45:12.188Z,19.25
2018-06-14T19:47:40.272Z,14.45
2018-06-14T19:50:08.327Z,12.10
2018-06-14T19:52:36.397Z,14.90
2018-06-14T19:55:04.534Z,20.68
2018-06-14T19:57:32.600Z,17.60
2018-06-14T20:00:00.664Z,17.50
2018-06-14T20:02:28.749Z,17.62
2018-06-14T20:04:56.796Z,23.95
2018-06-14T20:07:24.856Z,22.50
2018-06-14T20:09:52.935Z,13.15
2018-06-14T20:12:21.001Z,18.73
2018-06-14T20:14:49.057Z,13.48
2018-06-14T20:17:17.153Z,16.87
2018-06-14T20:19:45.196Z,18.65
2018-06-14T20:22:14.064Z,20.50
2018-06-14T20:24:42.124Z,20.05
2018-06-14T20:27:10.237Z,15.68
2018-06-14T20:29:38.289Z,15.50
2018-06-14T20:32:06.397Z,13.03
2018-06-14T20:34:34.472Z,16.00
2018-06-14T20:37:02.528Z,15.23
2018-06-14T20:39:30.612Z,20.30
2018-06-14T20:41:58.762Z,13.72
2018-06-14T20:44:26.744Z,19.37
2018-06-14T20:46:54.802Z,15.30
2018-06-14T20:49:22.916Z,15.88
2018-06-14T20:51:51.029Z,16.12
2018-06-14T20:54:19.079Z,17.60
2018-06-14T20:56:47.137Z,17.40
2018-06-14T20:59:15.203Z,15.75
2018-06-14T21:01:43.303Z,19.30
2018-06-14T21:04:11.416Z,14.95
2018-06-14T21:06:39.476Z,12.80
2018-06-14T21:09:08.878Z,13.58
2018-06-14T21:11:36.981Z,14.58
2018-06-14T21:14:05.041Z,13.38
2018-06-14T21:16:33.105Z,10.40
2018-06-14T21:19:01.197Z,11.15
2018-06-14T21:21:29.351Z,12.28
2018-06-14T21:23:57.508Z,11.08
2018-06-14T21:26:25.583Z,11.12
2018-06-14T21:28:53.656Z,13.62
2018-06-14T21:31:21.764Z,13.28
2018-06-14T21:33:49.829Z,15.70
2018-06-14T21:36:17.900Z,17.40
2018-06-14T21:38:45.984Z,12.85
2018-06-14T21:41:14.044Z,11.55
2018-06-14T21:43:42.109Z,16.27
2018-06-14T21:46:10.164Z,14.58
2018-06-14T21:48:38.232Z,15.83
2018-06-14T21:51:06.299Z,15.80
2018-06-14T21:53:34.376Z,13.00
2018-06-14T21:56:02.424Z,13.65
2018-06-14T21:58:30.512Z,16.05
2018-06-14T22:00:58.595Z,15.45
2018-06-14T22:03:32.176Z,18.05
2018-06-14T22:06:00.236Z,16.10
2018-06-14T22:08:28.324Z,16.55
2018-06-14T22:10:56.414Z,17.48
2018-06-14T22:13:24.492Z,14.30
2018-06-14T22:15:52.545Z,14.60
2018-06-14T22:18:20.615Z,20.62
2018-06-14T22:20:48.685Z,15.85
2018-06-14T22:23:16.756Z,20.55
2018-06-14T22:25:44.833Z,11.93
2018-06-14T22:28:12.894Z,18.30
2018-06-14T22:30:40.996Z,18.20
2018-06-14T22:33:20.475Z,15.23
2018-06-14T22:35:48.545Z,16.00
2018-06-14T22:38:16.589Z,14.93
2018-06-14T22:40:44.655Z,33.48
2018-06-14T22:43:12.717Z,14.78
2018-06-14T22:45:40.780Z,17.73
2018-06-14T22:48:08.832Z,22.77
2018-06-14T22:50:48.246Z,15.70
2018-06-14T22:53:16.297Z,17.40
2018-06-14T22:55:44.367Z,15.43
2018-06-14T22:58:12.416Z,18.07
2018-06-14T23:01:47.955Z,17.40
2018-06-14T23:04:20.197Z,14.73
2018-06-14T23:06:48.312Z,11.22
2018-06-14T23:10:57.098Z,19.00
2018-06-14T23:13:25.173Z,19.85
2018-06-14T23:15:53.220Z,20.90
2018-06-14T23:18:21.285Z,15.05
2018-06-14T23:20:49.385Z,21.40
2018-06-14T23:23:17.483Z,15.43
2018-06-14T23:25:45.524Z,18.60
2018-06-14T23:28:13.588Z,23.42
2018-06-14T23:30:41.653Z,20.43
2018-06-14T23:33:09.698Z,17.92
2018-06-14T23:35:37.775Z,12.82
2018-06-14T23:38:05.830Z,15.70
2018-06-14T23:40:33.900Z,24.90
2018-06-14T23:43:01.953Z,17.35
2018-06-14T23:45:29.992Z,15.55
2018-06-14T23:47:58.054Z,18.02
2018-06-14T23:50:26.112Z,23.35
2018-06-14T23:52:54.176Z,18.77
2018-06-14T23:55:22.216Z,12.68
2018-06-14T23:57:50.290Z,18.60
